createdAt,value
2023-04-15T00:00:05.999Z,947.4465
2023-04-15T00:01:06.334Z,947.4431
2023-04-15T00:02:06.645Z,947.4200
2023-04-15T00:03:07.037Z,947.4113
2023-04-15T00:04:07.782Z,947.4113
2023-04-15T00:05:08.187Z,947.4113
2023-04-15T00:06:08.550Z,947.4143
2023-04-15T00:07:08.877Z,947.4230
2023-04-15T00:08:09.156Z,947.4287
2023-04-15T00:09:09.528Z,947.4343
2023-04-15T00:10:09.823Z,947.4365
2023-04-15T00:11:10.075Z,947.4374
2023-04-15T00:12:10.389Z,947.4326
2023-04-15T00:13:10.676Z,947.4218
2023-04-15T00:14:10.969Z,947.4113
2023-04-15T00:15:11.229Z,947.3974
2023-04-15T00:16:11.507Z,947.3870
2023-04-15T00:17:11.741Z,947.3809
2023-04-15T00:18:12.038Z,947.3722
2023-04-15T00:19:12.337Z,947.3643
2023-04-15T00:20:12.637Z,947.3630
2023-04-15T00:21:12.928Z,947.3652
2023-04-15T00:22:13.231Z,947.3591
2023-04-15T00:23:13.470Z,947.3582
2023-04-15T00:24:13.767Z,947.3591
2023-04-15T00:25:14.080Z,947.3565
2023-04-15T00:26:14.344Z,947.3508
2023-04-15T00:27:14.669Z,947.3448
2023-04-15T00:28:14.964Z,947.3439
2023-04-15T00:29:15.244Z,947.3309
2023-04-15T00:30:15.559Z,947.3174
2023-04-15T00:31:15.947Z,947.3039
2023-04-15T00:32:16.258Z,947.2874
2023-04-15T00:33:16.508Z,947.2778
2023-04-15T00:34:16.791Z,947.2787
2023-04-15T00:35:17.129Z,947.2739
2023-04-15T00:36:17.416Z,947.2661
2023-04-15T00:37:17.755Z,947.2696
2023-04-15T00:38:18.026Z,947.2618
2023-04-15T00:39:18.296Z,947.2557
2023-04-15T00:40:18.576Z,947.2552
2023-04-15T00:41:18.860Z,947.2491
2023-04-15T00:42:19.101Z,947.2387
2023-04-15T00:43:19.381Z,947.2400
2023-04-15T00:44:19.920Z,947.2296
2023-04-15T00:45:20.252Z,947.2187
2023-04-15T00:46:20.675Z,947.2122
2023-04-15T00:47:21.036Z,947.1900
2023-04-15T00:48:21.360Z,947.1822
2023-04-15T00:49:21.579Z,947.1735
2023-04-15T00:50:21.860Z,947.1700
2023-04-15T00:51:22.114Z,947.1774
2023-04-15T00:52:22.437Z,947.1861
2023-04-15T00:53:22.816Z,947.2031
2023-04-15T00:54:23.140Z,947.2130
2023-04-15T00:55:23.421Z,947.2248
2023-04-15T00:56:23.689Z,947.2443
2023-04-15T00:57:23.999Z,947.2513
2023-04-15T00:58:24.340Z,947.2518
2023-04-15T00:59:24.623Z,947.2548
2023-04-15T01:00:24.963Z,947.2570
2023-04-15T01:01:25.164Z,947.2522
2023-04-15T01:02:25.483Z,947.2422
2023-04-15T01:03:25.947Z,947.2365
2023-04-15T01:04:26.564Z,947.2369
2023-04-15T01:05:26.894Z,947.2361
2023-04-15T01:06:27.173Z,947.2335
2023-04-15T01:07:27.400Z,947.2369
2023-04-15T01:08:27.697Z,947.2365
2023-04-15T01:09:27.979Z,947.2357
2023-04-15T01:10:28.244Z,947.2234
2023-04-15T01:11:28.528Z,947.2174
2023-04-15T01:12:28.736Z,947.2113
2023-04-15T01:13:29.023Z,947.2243
2023-04-15T01:14:29.316Z,947.2435
2023-04-15T01:15:29.629Z,947.2622
2023-04-15T01:16:29.983Z,947.2826
2023-04-15T01:17:30.235Z,947.3039
2023-04-15T01:18:30.484Z,947.3270
2023-04-15T01:19:30.753Z,947.3357
2023-04-15T01:20:31.071Z,947.3448
2023-04-15T01:21:31.361Z,947.3561
2023-04-15T01:22:31.665Z,947.3704
2023-04-15T01:23:31.916Z,947.3704
2023-04-15T01:24:34.326Z,947.3730
2023-04-15T01:25:36.131Z,947.3763
2023-04-15T01:26:36.445Z,947.3822
2023-04-15T01:27:36.719Z,947.3782
2023-04-15T01:28:37.050Z,947.3826
2023-04-15T01:29:37.316Z,947.3878
2023-04-15T01:30:37.588Z,947.3818
2023-04-15T01:31:37.936Z,947.3800
2023-04-15T01:32:38.322Z,947.3800
2023-04-15T01:33:38.629Z,947.3848
2023-04-15T01:34:38.924Z,947.3874
2023-04-15T01:35:39.199Z,947.3909
2023-04-15T01:36:39.478Z,947.4026
2023-04-15T01:37:39.762Z,947.3996
2023-04-15T01:38:40.042Z,947.4030
2023-04-15T01:39:40.328Z,947.4074
2023-04-15T01:40:40.556Z,947.4161
2023-04-15T01:41:40.835Z,947.4322
2023-04-15T01:42:41.147Z,947.4465
2023-04-15T01:43:41.391Z,947.4531
2023-04-15T01:44:41.672Z,947.4539
2023-04-15T01:45:41.900Z,947.4543
2023-04-15T01:46:42.155Z,947.4478
2023-04-15T01:47:42.481Z,947.4470
2023-04-15T01:48:42.730Z,947.4339
2023-04-15T01:49:42.959Z,947.4196
2023-04-15T01:50:43.237Z,947.4156
2023-04-15T01:51:43.542Z,947.4122
2023-04-15T01:52:43.918Z,947.4078
2023-04-15T01:53:44.265Z,947.4148
2023-04-15T01:54:44.629Z,947.4247
2023-04-15T01:55:44.939Z,947.4308
2023-04-15T01:56:45.271Z,947.4404
2023-04-15T01:57:45.610Z,947.4509
2023-04-15T01:58:46.040Z,947.4570
2023-04-15T01:59:46.353Z,947.4639
2023-04-15T02:00:46.702Z,947.4678
2023-04-15T02:01:47.018Z,947.4644
2023-04-15T02:02:47.339Z,947.4565
2023-04-15T02:03:47.891Z,947.4500
2023-04-15T02:04:48.524Z,947.4448
2023-04-15T02:05:48.816Z,947.4387
2023-04-15T02:06:49.170Z,947.4257
2023-04-15T02:07:49.471Z,947.4191
2023-04-15T02:08:49.739Z,947.4182
2023-04-15T02:09:50.106Z,947.4182
2023-04-15T02:10:50.456Z,947.4169
2023-04-15T02:11:50.779Z,947.4230
2023-04-15T02:12:51.075Z,947.4235
2023-04-15T02:13:51.410Z,947.4247
2023-04-15T02:14:51.753Z,947.4239
2023-04-15T02:15:52.237Z,947.4230
2023-04-15T02:16:52.623Z,947.4278
2023-04-15T02:17:52.984Z,947.4418
2023-04-15T02:18:53.329Z,947.4531
2023-04-15T02:19:53.657Z,947.4613
2023-04-15T02:20:53.953Z,947.4665
2023-04-15T02:21:54.281Z,947.4678
2023-04-15T02:22:54.599Z,947.4678
2023-04-15T02:23:54.916Z,947.4734
2023-04-15T02:24:55.222Z,947.4857
2023-04-15T02:25:55.586Z,947.4782
2023-04-15T02:26:55.934Z,947.4765
2023-04-15T02:27:56.209Z,947.4778
2023-04-15T02:28:56.576Z,947.4808
2023-04-15T02:29:56.907Z,947.4765
2023-04-15T02:30:57.320Z,947.4787
2023-04-15T02:31:57.783Z,947.4843
2023-04-15T02:32:58.134Z,947.4808
2023-04-15T02:33:58.444Z,947.4787
2023-04-15T02:34:58.779Z,947.4756
2023-04-15T02:35:59.076Z,947.4717
2023-04-15T02:36:59.384Z,947.4639
2023-04-15T02:37:59.629Z,947.4734
2023-04-15T02:39:00.127Z,947.4813
2023-04-15T02:40:00.661Z,947.4813
2023-04-15T02:41:00.907Z,947.4861
2023-04-15T02:42:01.293Z,947.4865
2023-04-15T02:43:01.542Z,947.4843
2023-04-15T02:44:01.910Z,947.5061
2023-04-15T02:45:02.349Z,947.5096
2023-04-15T02:46:02.853Z,947.5100
2023-04-15T02:47:03.287Z,947.5126
2023-04-15T02:48:03.617Z,947.5000
2023-04-15T02:49:03.914Z,947.4865
2023-04-15T02:50:04.266Z,947.4796
2023-04-15T02:51:04.563Z,947.4700
2023-04-15T02:52:04.848Z,947.4669
2023-04-15T02:53:05.173Z,947.4635
2023-04-15T02:54:05.488Z,947.4561
2023-04-15T02:55:05.796Z,947.4509
2023-04-15T02:56:06.137Z,947.4461
2023-04-15T02:57:06.458Z,947.4565
2023-04-15T02:58:06.816Z,947.4583
2023-04-15T02:59:07.154Z,947.4678
2023-04-15T03:00:07.475Z,947.4769
2023-04-15T03:01:08.128Z,947.4904
2023-04-15T03:02:08.817Z,947.5087
2023-04-15T03:03:09.276Z,947.5213
2023-04-15T03:04:09.723Z,947.5335
2023-04-15T03:05:10.153Z,947.5365
2023-04-15T03:06:10.416Z,947.5369
2023-04-15T03:07:10.753Z,947.5339
2023-04-15T03:08:11.030Z,947.5244
2023-04-15T03:09:11.357Z,947.5131
2023-04-15T03:10:11.693Z,947.4948
2023-04-15T03:11:13.175Z,947.4835
2023-04-15T03:12:13.503Z,947.4665
2023-04-15T03:13:13.849Z,947.4622
2023-04-15T03:14:14.138Z,947.4570
2023-04-15T03:15:14.499Z,947.4604
2023-04-15T03:16:14.868Z,947.4661
2023-04-15T03:17:15.198Z,947.4626
2023-04-15T03:18:15.491Z,947.4522
2023-04-15T03:19:15.849Z,947.4492
2023-04-15T03:20:16.243Z,947.4426
2023-04-15T03:21:16.661Z,947.4361
2023-04-15T03:22:17.001Z,947.4370
2023-04-15T03:23:17.315Z,947.4453
2023-04-15T03:24:17.678Z,947.4587
2023-04-15T03:25:17.969Z,947.4756
2023-04-15T03:26:18.283Z,947.4835
2023-04-15T03:27:18.606Z,947.4865
2023-04-15T03:28:19.094Z,947.4813
2023-04-15T03:29:19.626Z,947.4765
2023-04-15T03:30:19.946Z,947.4600
2023-04-15T03:31:20.315Z,947.4453
2023-04-15T03:32:20.640Z,947.4313
2023-04-15T03:33:20.985Z,947.4296
2023-04-15T03:34:21.367Z,947.4269
2023-04-15T03:35:21.730Z,947.4235
2023-04-15T03:36:22.052Z,947.4196
2023-04-15T03:37:22.381Z,947.4095
2023-04-15T03:38:22.662Z,947.4113
2023-04-15T03:39:22.974Z,947.4095
2023-04-15T03:40:23.271Z,947.4074
2023-04-15T03:41:23.559Z,947.3978
2023-04-15T03:42:23.859Z,947.3896
2023-04-15T03:43:24.234Z,947.3739
2023-04-15T03:44:24.501Z,947.3539
2023-04-15T03:45:24.818Z,947.3392
2023-04-15T03:46:25.189Z,947.3265
2023-04-15T03:47:25.589Z,947.3278
2023-04-15T03:48:25.901Z,947.3165
2023-04-15T03:49:26.241Z,947.3113
2023-04-15T03:50:26.559Z,947.3152
2023-04-15T03:51:26.889Z,947.3213
2023-04-15T03:52:27.165Z,947.3261
2023-04-15T03:53:27.561Z,947.3300
2023-04-15T03:54:27.868Z,947.3378
2023-04-15T03:55:28.212Z,947.3392
2023-04-15T03:56:28.718Z,947.3444
2023-04-15T03:57:29.297Z,947.3448
2023-04-15T03:58:29.615Z,947.3522
2023-04-15T03:59:29.981Z,947.3495
2023-04-15T04:00:30.294Z,947.3596
2023-04-15T04:01:30.714Z,947.3661
2023-04-15T04:02:31.114Z,947.3735
2023-04-15T04:03:31.671Z,947.3770
2023-04-15T04:04:32.184Z,947.3809
2023-04-15T04:05:32.817Z,947.3904
2023-04-15T04:06:33.318Z,947.3926
2023-04-15T04:07:33.673Z,947.4048
2023-04-15T04:08:33.977Z,947.4022
2023-04-15T04:09:34.314Z,947.4022
2023-04-15T04:10:34.617Z,947.4087
2023-04-15T04:11:36.353Z,947.4133
2023-04-15T04:12:36.646Z,947.4239
2023-04-15T04:13:36.970Z,947.4269
2023-04-15T04:14:37.290Z,947.4287
2023-04-15T04:15:37.757Z,947.4222
2023-04-15T04:16:38.119Z,947.4130
2023-04-15T04:17:38.431Z,947.4113
2023-04-15T04:18:38.743Z,947.4052
2023-04-15T04:19:39.038Z,947.4130
2023-04-15T04:20:39.366Z,947.4252
2023-04-15T04:21:39.730Z,947.4226
2023-04-15T04:22:40.112Z,947.4374
2023-04-15T04:23:40.467Z,947.4413
2023-04-15T04:24:40.742Z,947.4365
2023-04-15T04:25:41.052Z,947.4443
2023-04-15T04:26:41.357Z,947.4513
2023-04-15T04:27:41.648Z,947.4648
2023-04-15T04:28:41.930Z,947.4747
2023-04-15T04:29:42.269Z,947.4717
2023-04-15T04:30:42.605Z,947.4687
2023-04-15T04:31:42.932Z,947.4678
2023-04-15T04:32:43.300Z,947.4743
2023-04-15T04:33:43.593Z,947.4813
2023-04-15T04:34:43.948Z,947.4878
2023-04-15T04:35:44.321Z,947.4926
2023-04-15T04:36:44.660Z,947.4961
2023-04-15T04:37:45.027Z,947.4939
2023-04-15T04:38:45.327Z,947.4969
2023-04-15T04:39:45.669Z,947.5035
2023-04-15T04:40:46.011Z,947.5052
2023-04-15T04:41:46.359Z,947.5139
2023-04-15T04:42:46.687Z,947.5109
2023-04-15T04:43:47.007Z,947.5087
2023-04-15T04:44:47.309Z,947.5000
2023-04-15T04:45:47.714Z,947.4961
2023-04-15T04:46:48.023Z,947.4982
2023-04-15T04:47:48.331Z,947.4957
2023-04-15T04:48:48.684Z,947.4930
2023-04-15T04:49:49.013Z,947.4857
2023-04-15T04:50:49.374Z,947.4791
2023-04-15T04:51:49.629Z,947.4826
2023-04-15T04:52:49.987Z,947.4939
2023-04-15T04:53:50.322Z,947.4961
2023-04-15T04:54:50.640Z,947.4948
2023-04-15T04:55:50.976Z,947.5000
2023-04-15T04:56:51.325Z,947.4978
2023-04-15T04:57:51.699Z,947.5052
2023-04-15T04:58:52.055Z,947.5018
2023-04-15T04:59:52.354Z,947.5000
2023-04-15T05:00:52.697Z,947.5078
2023-04-15T05:01:53.056Z,947.5222
2023-04-15T05:02:53.538Z,947.5274
2023-04-15T05:03:54.135Z,947.5348
2023-04-15T05:04:54.590Z,947.5447
2023-04-15T05:05:54.966Z,947.5404
2023-04-15T05:06:55.336Z,947.5487
2023-04-15T05:07:55.756Z,947.5447
2023-04-15T05:08:56.049Z,947.5591
2023-04-15T05:09:56.397Z,947.5609
2023-04-15T05:10:56.741Z,947.5704
2023-04-15T05:11:57.049Z,947.5852
2023-04-15T05:12:57.384Z,947.5952
2023-04-15T05:13:57.707Z,947.6087
2023-04-15T05:14:58.079Z,947.6257
2023-04-15T05:15:58.440Z,947.6343
2023-04-15T05:16:58.762Z,947.6500
2023-04-15T05:17:59.194Z,947.6505
2023-04-15T05:18:59.632Z,947.6630
2023-04-15T05:20:00.211Z,947.6787
2023-04-15T05:21:00.563Z,947.6931
2023-04-15T05:22:00.872Z,947.7018
2023-04-15T05:23:01.244Z,947.7109
2023-04-15T05:24:01.553Z,947.7222
2023-04-15T05:25:01.884Z,947.7287
2023-04-15T05:26:02.218Z,947.7308
2023-04-15T05:27:02.590Z,947.7382
2023-04-15T05:28:03.008Z,947.7482
2023-04-15T05:29:03.457Z,947.7478
2023-04-15T05:30:03.947Z,947.7491
2023-04-15T05:31:04.321Z,947.7513
2023-04-15T05:32:04.652Z,947.7509
2023-04-15T05:33:05.105Z,947.7457
2023-04-15T05:34:05.512Z,947.7465
2023-04-15T05:35:05.839Z,947.7443
2023-04-15T05:36:06.172Z,947.7578
2023-04-15T05:37:06.507Z,947.7613
2023-04-15T05:38:06.857Z,947.7643
2023-04-15T05:39:07.222Z,947.7609
2023-04-15T05:40:07.590Z,947.7592
2023-04-15T05:41:07.888Z,947.7474
2023-04-15T05:42:08.260Z,947.7491
2023-04-15T05:43:08.605Z,947.7522
2023-04-15T05:44:08.896Z,947.7491
2023-04-15T05:45:09.307Z,947.7469
2023-04-15T05:46:09.736Z,947.7413
2023-04-15T05:47:10.026Z,947.7387
2023-04-15T05:48:10.443Z,947.7457
2023-04-15T05:49:10.814Z,947.7592
2023-04-15T05:50:11.160Z,947.7618
2023-04-15T05:51:11.640Z,947.7635
2023-04-15T05:52:11.964Z,947.7739
2023-04-15T05:53:12.280Z,947.7796
2023-04-15T05:54:12.585Z,947.7861
2023-04-15T05:55:12.916Z,947.7848
2023-04-15T05:56:13.242Z,947.7978
2023-04-15T05:57:13.562Z,947.7948
2023-04-15T05:58:13.887Z,947.7939
2023-04-15T05:59:14.177Z,947.7974
2023-04-15T06:00:14.569Z,947.7974
2023-04-15T06:01:14.892Z,947.8113
2023-04-15T06:02:15.335Z,947.8196
2023-04-15T06:03:15.704Z,947.8248
2023-04-15T06:04:16.028Z,947.8226
2023-04-15T06:05:16.372Z,947.8257
2023-04-15T06:06:16.890Z,947.8326
2023-04-15T06:07:17.288Z,947.8378
2023-04-15T06:08:17.615Z,947.8396
2023-04-15T06:09:17.885Z,947.8304
2023-04-15T06:10:18.164Z,947.8331
2023-04-15T06:11:18.437Z,947.8430
2023-04-15T06:12:18.867Z,947.8574
2023-04-15T06:13:19.127Z,947.8765
2023-04-15T06:14:19.423Z,947.8757
2023-04-15T06:15:19.797Z,947.8748
2023-04-15T06:16:20.081Z,947.8643
2023-04-15T06:17:20.451Z,947.8696
2023-04-15T06:18:20.702Z,947.8652
2023-04-15T06:19:21.149Z,947.8652
2023-04-15T06:20:21.397Z,947.8539
2023-04-15T06:21:21.740Z,947.8361
2023-04-15T06:22:22.091Z,947.8322
2023-04-15T06:23:22.411Z,947.8396
2023-04-15T06:24:22.732Z,947.8409
2023-04-15T06:25:23.047Z,947.8287
2023-04-15T06:26:23.321Z,947.8122
2023-04-15T06:27:23.654Z,947.8052
2023-04-15T06:28:23.940Z,947.8043
2023-04-15T06:29:24.251Z,947.7922
2023-04-15T06:30:24.639Z,947.7874
2023-04-15T06:31:24.973Z,947.7896
2023-04-15T06:32:25.297Z,947.7904
2023-04-15T06:33:25.597Z,947.7908
2023-04-15T06:34:25.941Z,947.7861
2023-04-15T06:35:26.241Z,947.7878
2023-04-15T06:36:26.608Z,947.7883
2023-04-15T06:37:26.914Z,947.7856
2023-04-15T06:38:27.334Z,947.7835
2023-04-15T06:39:27.661Z,947.8074
2023-04-15T06:40:27.996Z,947.8213
2023-04-15T06:41:28.255Z,947.8322
2023-04-15T06:42:28.575Z,947.8339
2023-04-15T06:43:28.907Z,947.8282
2023-04-15T06:44:29.268Z,947.8226
2023-04-15T06:45:29.678Z,947.8243
2023-04-15T06:46:30.005Z,947.8339
2023-04-15T06:47:30.370Z,947.8405
2023-04-15T06:48:30.794Z,947.8452
2023-04-15T06:49:31.146Z,947.8543
2023-04-15T06:50:31.517Z,947.8691
2023-04-15T06:51:31.839Z,947.8770
2023-04-15T06:52:32.184Z,947.8831
2023-04-15T06:53:32.617Z,947.8909
2023-04-15T06:54:32.943Z,947.9083
2023-04-15T06:55:33.295Z,947.9108
2023-04-15T06:56:33.629Z,947.9148
2023-04-15T06:57:35.160Z,947.9296
2023-04-15T06:58:35.603Z,947.9257
2023-04-15T06:59:36.132Z,947.9187
2023-04-15T07:00:36.467Z,947.9091
2023-04-15T07:01:36.903Z,947.9117
2023-04-15T07:02:37.319Z,947.9152
2023-04-15T07:03:37.768Z,947.9196
2023-04-15T07:04:38.351Z,947.9265
2023-04-15T07:05:38.745Z,947.9287
2023-04-15T07:06:39.242Z,947.9391
2023-04-15T07:07:39.594Z,947.9365
2023-04-15T07:08:39.902Z,947.9330
2023-04-15T07:09:40.328Z,947.9370
2023-04-15T07:10:40.600Z,947.9348
2023-04-15T07:11:40.956Z,947.9247
2023-04-15T07:12:41.274Z,947.9243
2023-04-15T07:13:41.650Z,947.9122
2023-04-15T07:14:41.989Z,947.9104
2023-04-15T07:15:42.319Z,947.8978
2023-04-15T07:16:42.720Z,947.8970
2023-04-15T07:17:43.107Z,947.8961
2023-04-15T07:18:43.473Z,947.8900
2023-04-15T07:19:43.819Z,947.8778
2023-04-15T07:20:44.111Z,947.8761
2023-04-15T07:21:44.470Z,947.8647
2023-04-15T07:22:44.805Z,947.8639
2023-04-15T07:23:45.174Z,947.8661
2023-04-15T07:24:45.583Z,947.8608
2023-04-15T07:25:45.934Z,947.8495
2023-04-15T07:26:46.299Z,947.8405
2023-04-15T07:27:46.624Z,947.8326
2023-04-15T07:28:46.968Z,947.8387
2023-04-15T07:29:47.399Z,947.8296
2023-04-15T07:30:47.818Z,947.8204
2023-04-15T07:31:48.196Z,947.8078
2023-04-15T07:32:48.529Z,947.8035
2023-04-15T07:33:48.962Z,947.7982
2023-04-15T07:34:49.358Z,947.7939
2023-04-15T07:35:49.750Z,947.7800
2023-04-15T07:36:50.075Z,947.7787
2023-04-15T07:37:50.437Z,947.7831
2023-04-15T07:38:50.836Z,947.7865
2023-04-15T07:39:51.325Z,947.7856
2023-04-15T07:40:51.676Z,947.7822
2023-04-15T07:41:52.141Z,947.7674
2023-04-15T07:42:52.515Z,947.7582
2023-04-15T07:43:52.838Z,947.7582
2023-04-15T07:44:53.242Z,947.7653
2023-04-15T07:45:53.642Z,947.7639
2023-04-15T07:46:54.035Z,947.7805
2023-04-15T07:47:54.401Z,947.7813
2023-04-15T07:48:54.745Z,947.7817
2023-04-15T07:49:55.095Z,947.7852
2023-04-15T07:50:55.445Z,947.7805
2023-04-15T07:51:55.791Z,947.7757
2023-04-15T07:52:56.128Z,947.7813
2023-04-15T07:53:56.492Z,947.7766
2023-04-15T07:54:56.811Z,947.7678
2023-04-15T07:55:57.188Z,947.7692
2023-04-15T07:56:57.569Z,947.7622
2023-04-15T07:57:57.907Z,947.7696
2023-04-15T07:58:58.292Z,947.7622
2023-04-15T07:59:58.593Z,947.7643
2023-04-15T08:00:58.963Z,947.7596
2023-04-15T08:01:59.335Z,947.7574
2023-04-15T08:02:59.819Z,947.7613
2023-04-15T08:04:00.763Z,947.7578
2023-04-15T08:05:01.265Z,947.7622
2023-04-15T08:06:01.590Z,947.7696
2023-04-15T08:07:01.943Z,947.7813
2023-04-15T08:08:02.293Z,947.7848
2023-04-15T08:09:02.885Z,947.7761
2023-04-15T08:10:03.317Z,947.7692
2023-04-15T08:11:03.662Z,947.7792
2023-04-15T08:12:04.022Z,947.7887
2023-04-15T08:13:04.352Z,947.7939
2023-04-15T08:14:04.696Z,947.7965
2023-04-15T08:15:04.996Z,947.7974
2023-04-15T08:16:05.415Z,947.8074
2023-04-15T08:17:05.792Z,947.8157
2023-04-15T08:18:06.107Z,947.8200
2023-04-15T08:19:06.471Z,947.8253
2023-04-15T08:20:06.839Z,947.8239
2023-04-15T08:21:07.170Z,947.8204
2023-04-15T08:22:15.636Z,947.8209
2023-04-15T08:23:08.562Z,947.8358
2023-04-15T08:24:08.905Z,947.8370
2023-04-15T08:25:09.237Z,947.8426
2023-04-15T08:26:09.563Z,947.8435
2023-04-15T08:27:09.907Z,947.8513
2023-04-15T08:28:10.225Z,947.8517
2023-04-15T08:29:10.558Z,947.8530
2023-04-15T08:30:10.912Z,947.8530
2023-04-15T08:31:11.256Z,947.8622
2023-04-15T08:32:11.695Z,947.8674
2023-04-15T08:33:12.026Z,947.8687
2023-04-15T08:34:12.375Z,947.8665
2023-04-15T08:35:12.698Z,947.8657
2023-04-15T08:36:13.044Z,947.8657
2023-04-15T08:37:13.469Z,947.8752
2023-04-15T08:38:13.833Z,947.8900
2023-04-15T08:39:14.210Z,947.8957
2023-04-15T08:40:14.548Z,947.9039
2023-04-15T08:41:14.854Z,947.8943
2023-04-15T08:42:15.217Z,947.8892
2023-04-15T08:43:15.570Z,947.8853
2023-04-15T08:44:15.903Z,947.8865
2023-04-15T08:45:16.334Z,947.8853
2023-04-15T08:46:16.681Z,947.8813
2023-04-15T08:47:17.047Z,947.8904
2023-04-15T08:48:17.418Z,947.8918
2023-04-15T08:49:17.765Z,947.9039
2023-04-15T08:50:18.088Z,947.9061
2023-04-15T08:51:18.395Z,947.9039
2023-04-15T08:52:18.757Z,947.9013
2023-04-15T08:53:19.079Z,947.9044
2023-04-15T08:54:19.437Z,947.9078
2023-04-15T08:55:19.730Z,947.9091
2023-04-15T08:56:20.042Z,947.9069
2023-04-15T08:57:20.454Z,947.9009
2023-04-15T08:58:20.799Z,947.8957
2023-04-15T08:59:21.163Z,947.9000
2023-04-15T09:00:21.437Z,947.8970
2023-04-15T09:01:21.873Z,947.9009
2023-04-15T09:02:22.424Z,947.9070
2023-04-15T09:03:23.064Z,947.9200
2023-04-15T09:04:23.420Z,947.9352
2023-04-15T09:05:23.764Z,947.9548
2023-04-15T09:06:24.084Z,947.9543
2023-04-15T09:07:24.472Z,947.9756
2023-04-15T09:08:24.871Z,947.9808
2023-04-15T09:09:25.334Z,947.9887
2023-04-15T09:10:25.677Z,948.0082
2023-04-15T09:11:26.052Z,948.0213
2023-04-15T09:12:26.316Z,948.0383
2023-04-15T09:13:26.662Z,948.0452
2023-04-15T09:14:26.987Z,948.0518
2023-04-15T09:15:27.320Z,948.0539
2023-04-15T09:16:27.682Z,948.0596
2023-04-15T09:17:28.128Z,948.0718
2023-04-15T09:18:28.400Z,948.0765
2023-04-15T09:19:28.732Z,948.0892
2023-04-15T09:20:29.077Z,948.0878
2023-04-15T09:21:29.373Z,948.0926
2023-04-15T09:22:29.708Z,948.1174
2023-04-15T09:23:30.155Z,948.1322
2023-04-15T09:24:30.510Z,948.1526
2023-04-15T09:25:32.776Z,948.1608
2023-04-15T09:26:31.280Z,948.1682
2023-04-15T09:27:31.607Z,948.1782
2023-04-15T09:28:31.942Z,948.1874
2023-04-15T09:29:32.331Z,948.2000
2023-04-15T09:30:32.692Z,948.2065
2023-04-15T09:31:33.026Z,948.2208
2023-04-15T09:32:33.352Z,948.2278
2023-04-15T09:33:34.179Z,948.2230
2023-04-15T09:34:34.551Z,948.2239
2023-04-15T09:35:34.879Z,948.2178
2023-04-15T09:36:35.169Z,948.2178
2023-04-15T09:37:35.546Z,948.2195
2023-04-15T09:38:35.951Z,948.2204
2023-04-15T09:39:36.326Z,948.2256
2023-04-15T09:40:36.691Z,948.2287
2023-04-15T09:41:37.184Z,948.2278
2023-04-15T09:42:37.610Z,948.2343
2023-04-15T09:43:38.083Z,948.2378
2023-04-15T09:44:38.400Z,948.2422
2023-04-15T09:45:38.741Z,948.2531
2023-04-15T09:46:39.071Z,948.2631
2023-04-15T09:47:39.386Z,948.2783
2023-04-15T09:48:39.701Z,948.2852
2023-04-15T09:49:40.045Z,948.2922
2023-04-15T09:50:40.366Z,948.3057
2023-04-15T09:51:41.294Z,948.3213
2023-04-15T09:52:41.724Z,948.3265
2023-04-15T09:53:42.160Z,948.3426
2023-04-15T09:54:42.500Z,948.3647
2023-04-15T09:55:42.887Z,948.3708
2023-04-15T09:56:43.254Z,948.3718
2023-04-15T09:57:44.572Z,948.3635
2023-04-15T09:58:44.994Z,948.3574
2023-04-15T09:59:45.300Z,948.3539
2023-04-15T10:00:45.616Z,948.3461
2023-04-15T10:01:46.162Z,948.3353
2023-04-15T10:02:46.607Z,948.3322
2023-04-15T10:03:47.089Z,948.3422
2023-04-15T10:04:47.430Z,948.3622
2023-04-15T10:05:47.833Z,948.3778
2023-04-15T10:06:48.132Z,948.3996
2023-04-15T10:07:48.496Z,948.4009
2023-04-15T10:08:48.967Z,948.4130
2023-04-15T10:09:49.379Z,948.4278
2023-04-15T10:10:49.706Z,948.4308
2023-04-15T10:11:50.117Z,948.4426
2023-04-15T10:12:50.428Z,948.4557
2023-04-15T10:13:50.775Z,948.4474
2023-04-15T10:14:51.059Z,948.4378
2023-04-15T10:15:51.437Z,948.4330
2023-04-15T10:16:51.847Z,948.4335
2023-04-15T10:17:52.457Z,948.4318
2023-04-15T10:18:52.831Z,948.4404
2023-04-15T10:19:53.200Z,948.4348
2023-04-15T10:20:53.517Z,948.4413
2023-04-15T10:21:53.868Z,948.4496
2023-04-15T10:22:54.229Z,948.4652
2023-04-15T10:23:54.587Z,948.4570
2023-04-15T10:24:54.912Z,948.4639
2023-04-15T10:25:55.282Z,948.4739
2023-04-15T10:26:55.688Z,948.4878
2023-04-15T10:27:56.060Z,948.5153
2023-04-15T10:28:56.946Z,948.5143
2023-04-15T10:29:58.255Z,948.5113
2023-04-15T10:30:59.147Z,948.5305
2023-04-15T10:31:59.673Z,948.5330
2023-04-15T10:33:00.280Z,948.5348
2023-04-15T10:34:01.014Z,948.5322
2023-04-15T10:35:01.512Z,948.5365
2023-04-15T10:36:02.076Z,948.5422
2023-04-15T10:37:02.360Z,948.5469
2023-04-15T10:38:02.712Z,948.5300
2023-04-15T10:39:03.066Z,948.5335
2023-04-15T10:40:05.535Z,948.5539
2023-04-15T10:41:05.931Z,948.5461
2023-04-15T10:42:06.394Z,948.5383
2023-04-15T10:43:06.735Z,948.5430
2023-04-15T10:44:07.093Z,948.5547
2023-04-15T10:45:07.413Z,948.5665
2023-04-15T10:46:07.759Z,948.5609
2023-04-15T10:47:08.059Z,948.5652
2023-04-15T10:48:08.443Z,948.5792
2023-04-15T10:49:08.789Z,948.5665
2023-04-15T10:50:09.145Z,948.5643
2023-04-15T10:51:09.462Z,948.5518
2023-04-15T10:52:09.812Z,948.5700
2023-04-15T10:53:10.105Z,948.5765
2023-04-15T10:54:10.440Z,948.5970
2023-04-15T10:55:10.742Z,948.6061
2023-04-15T10:56:11.085Z,948.6052
2023-04-15T10:57:11.383Z,948.6435
2023-04-15T10:58:11.735Z,948.6843
2023-04-15T10:59:12.101Z,948.6953
2023-04-15T11:00:12.490Z,948.7083
2023-04-15T11:01:12.793Z,948.7104
2023-04-15T11:02:13.262Z,948.7208
2023-04-15T11:03:13.710Z,948.7413
2023-04-15T11:04:14.260Z,948.7574
2023-04-15T11:05:14.566Z,948.7653
2023-04-15T11:06:14.921Z,948.7744
2023-04-15T11:07:15.250Z,948.7774
2023-04-15T11:08:15.569Z,948.7930
2023-04-15T11:09:15.967Z,948.7926
2023-04-15T11:10:16.292Z,948.8026
2023-04-15T11:11:16.634Z,948.8278
2023-04-15T11:12:17.002Z,948.8474
2023-04-15T11:13:17.433Z,948.8444
2023-04-15T11:14:17.895Z,948.8587
2023-04-15T11:15:18.252Z,948.8818
2023-04-15T11:16:18.657Z,948.8917
2023-04-15T11:17:18.931Z,948.8878
2023-04-15T11:18:19.277Z,948.9065
2023-04-15T11:19:19.639Z,948.9239
2023-04-15T11:20:19.958Z,948.9370
2023-04-15T11:21:20.260Z,948.9552
2023-04-15T11:22:20.617Z,948.9761
2023-04-15T11:23:20.889Z,948.9922
2023-04-15T11:24:21.269Z,948.9957
2023-04-15T11:25:22.249Z,949.0157
2023-04-15T11:26:22.591Z,949.0439
2023-04-15T11:27:22.961Z,949.0370
2023-04-15T11:28:23.352Z,949.0839
2023-04-15T11:29:23.757Z,949.0891
2023-04-15T11:30:24.194Z,949.0965
2023-04-15T11:31:24.620Z,949.1035
2023-04-15T11:32:25.298Z,949.1118
2023-04-15T11:33:25.991Z,949.1326
2023-04-15T11:34:26.411Z,949.1509
2023-04-15T11:35:26.785Z,949.1713
2023-04-15T11:36:27.200Z,949.1800
2023-04-15T11:37:27.532Z,949.1696
2023-04-15T11:38:27.874Z,949.1965
2023-04-15T11:39:28.303Z,949.1913
2023-04-15T11:40:28.654Z,949.1926
2023-04-15T11:41:29.030Z,949.2056
2023-04-15T11:42:39.280Z,949.2204
2023-04-15T11:43:30.658Z,949.2114
2023-04-15T11:44:31.103Z,949.2378
2023-04-15T11:45:31.515Z,949.2413
2023-04-15T11:46:32.240Z,949.2457
2023-04-15T11:47:32.945Z,949.2674
2023-04-15T11:48:33.405Z,949.2917